sensor_id;sensor_type;location;lat;lon;timestamp;pressure;altitude;pressure_sealevel;temperature;humidity
59104;BME280;51449;51.676;5.812;2023-10-13T00:00:31;101118.91;;;18.56;90.81
59104;BME280;51449;51.676;5.812;2023-10-13T00:03:05;101111.34;;;18.57;90.94
59104;BME280;51449;51.676;5.812;2023-10-13T00:05:37;101112.94;;;18.58;90.75
59104;BME280;51449;51.676;5.812;2023-10-13T00:08:00;101110.16;;;18.58;90.62
59104;BME280;51449;51.676;5.812;2023-10-13T00:10:24;101107.34;;;18.58;90.83
59104;BME280;51449;51.676;5.812;2023-10-13T00:12:46;101106.63;;;18.61;90.90
59104;BME280;51449;51.676;5.812;2023-10-13T00:15:14;101106.19;;;18.59;90.77
59104;BME280;51449;51.676;5.812;2023-10-13T00:17:36;101101.78;;;18.58;91.08
59104;BME280;51449;51.676;5.812;2023-10-13T00:20:00;101094.22;;;18.58;90.83
59104;BME280;51449;51.676;5.812;2023-10-13T00:22:21;101097.81;;;18.59;90.85
59104;BME280;51449;51.676;5.812;2023-10-13T00:24:44;101096.25;;;18.61;90.76
59104;BME280;51449;51.676;5.812;2023-10-13T00:27:17;101099.84;;;18.62;90.66
59104;BME280;51449;51.676;5.812;2023-10-13T00:30:03;101083.47;;;18.60;90.65
59104;BME280;51449;51.676;5.812;2023-10-13T00:32:39;101083.47;;;18.60;90.58
59104;BME280;51449;51.676;5.812;2023-10-13T00:35:04;101079.88;;;18.60;90.69
59104;BME280;51449;51.676;5.812;2023-10-13T00:37:26;101084.66;;;18.59;90.78
59104;BME280;51449;51.676;5.812;2023-10-13T00:40:02;101076.28;;;18.59;90.57
59104;BME280;51449;51.676;5.812;2023-10-13T00:42:29;101083.06;;;18.58;90.65
59104;BME280;51449;51.676;5.812;2023-10-13T00:45:12;101080.66;;;18.60;90.76
59104;BME280;51449;51.676;5.812;2023-10-13T00:47:38;101075.91;;;18.61;90.68
59104;BME280;51449;51.676;5.812;2023-10-13T00:50:00;101073.13;;;18.61;90.65
59104;BME280;51449;51.676;5.812;2023-10-13T00:52:22;101069.13;;;18.58;90.46
59104;BME280;51449;51.676;5.812;2023-10-13T00:54:44;101072.28;;;18.57;90.55
59104;BME280;51449;51.676;5.812;2023-10-13T00:57:13;101068.28;;;18.58;90.47
59104;BME280;51449;51.676;5.812;2023-10-13T00:59:50;101060.25;;;18.53;90.65
59104;BME280;51449;51.676;5.812;2023-10-13T01:02:14;101066.66;;;18.53;90.63
59104;BME280;51449;51.676;5.812;2023-10-13T01:04:55;101061.47;;;18.52;90.67
59104;BME280;51449;51.676;5.812;2023-10-13T01:07:18;101053.88;;;18.52;90.62
59104;BME280;51449;51.676;5.812;2023-10-13T01:09:44;101056.66;;;18.49;90.99
59104;BME280;51449;51.676;5.812;2023-10-13T01:12:09;101051.50;;;18.51;90.53
59104;BME280;51449;51.676;5.812;2023-10-13T01:14:30;101048.28;;;18.49;90.57
59104;BME280;51449;51.676;5.812;2023-10-13T01:16:53;101045.06;;;18.47;90.63
59104;BME280;51449;51.676;5.812;2023-10-13T01:19:17;101042.66;;;18.45;90.73
59104;BME280;51449;51.676;5.812;2023-10-13T01:21:41;101043.06;;;18.44;90.76
59104;BME280;51449;51.676;5.812;2023-10-13T01:24:03;101030.69;;;18.45;90.85
59104;BME280;51449;51.676;5.812;2023-10-13T01:26:29;101037.06;;;18.45;90.67
59104;BME280;51449;51.676;5.812;2023-10-13T01:28:51;101030.28;;;18.43;90.81
59104;BME280;51449;51.676;5.812;2023-10-13T01:31:18;101030.25;;;18.39;91.23
59104;BME280;51449;51.676;5.812;2023-10-13T01:33:48;101027.81;;;18.37;91.19
59104;BME280;51449;51.676;5.812;2023-10-13T01:36:13;101023.44;;;18.36;91.41
59104;BME280;51449;51.676;5.812;2023-10-13T01:38:35;101021.47;;;18.40;91.38
59104;BME280;51449;51.676;5.812;2023-10-13T01:40:59;101021.06;;;18.38;91.42
59104;BME280;51449;51.676;5.812;2023-10-13T01:43:20;101017.47;;;18.38;91.26
59104;BME280;51449;51.676;5.812;2023-10-13T01:45:42;101009.88;;;18.38;91.42
59104;BME280;51449;51.676;5.812;2023-10-13T01:48:08;101009.88;;;18.38;91.17
59104;BME280;51449;51.676;5.812;2023-10-13T01:50:30;101006.31;;;18.38;91.27
59104;BME280;51449;51.676;5.812;2023-10-13T01:52:53;100995.56;;;18.36;91.22
59104;BME280;51449;51.676;5.812;2023-10-13T01:55:27;100988.34;;;18.35;91.40
59104;BME280;51449;51.676;5.812;2023-10-13T01:57:50;100995.56;;;18.36;91.28
59104;BME280;51449;51.676;5.812;2023-10-13T02:00:12;100987.19;;;18.36;91.25
59104;BME280;51449;51.676;5.812;2023-10-13T02:02:40;100977.19;;;18.35;91.26
59104;BME280;51449;51.676;5.812;2023-10-13T02:05:07;100980.41;;;18.37;91.21
59104;BME280;51449;51.676;5.812;2023-10-13T02:07:29;100967.22;;;18.34;91.22
59104;BME280;51449;51.676;5.812;2023-10-13T02:09:56;100969.22;;;18.34;91.25
59104;BME280;51449;51.676;5.812;2023-10-13T02:12:21;100966.44;;;18.34;91.31
59104;BME280;51449;51.676;5.812;2023-10-13T02:14:58;100958.00;;;18.30;91.40
59104;BME280;51449;51.676;5.812;2023-10-13T02:17:23;100957.66;;;18.32;91.32
59104;BME280;51449;51.676;5.812;2023-10-13T02:19:45;100956.06;;;18.34;91.36
59104;BME280;51449;51.676;5.812;2023-10-13T02:22:08;100949.28;;;18.35;91.42
59104;BME280;51449;51.676;5.812;2023-10-13T02:24:31;100949.28;;;18.35;91.33
59104;BME280;51449;51.676;5.812;2023-10-13T02:26:53;100945.72;;;18.35;91.30
59104;BME280;51449;51.676;5.812;2023-10-13T02:29:14;100939.75;;;18.36;91.26
59104;BME280;51449;51.676;5.812;2023-10-13T02:31:41;100941.72;;;18.36;91.31
59104;BME280;51449;51.676;5.812;2023-10-13T02:34:04;100942.91;;;18.35;91.15
59104;BME280;51449;51.676;5.812;2023-10-13T02:36:29;100938.13;;;18.35;91.35
59104;BME280;51449;51.676;5.812;2023-10-13T02:38:58;100943.72;;;18.35;91.58
59104;BME280;51449;51.676;5.812;2023-10-13T02:41:20;100942.91;;;18.35;91.03
59104;BME280;51449;51.676;5.812;2023-10-13T02:43:49;100944.50;;;18.36;91.20
59104;BME280;51449;51.676;5.812;2023-10-13T02:46:11;100944.91;;;18.34;91.25
59104;BME280;51449;51.676;5.812;2023-10-13T02:48:32;100933.75;;;18.34;91.41
59104;BME280;51449;51.676;5.812;2023-10-13T02:51:08;100934.94;;;18.33;91.46
59104;BME280;51449;51.676;5.812;2023-10-13T02:53:37;100915.81;;;18.32;91.60
59104;BME280;51449;51.676;5.812;2023-10-13T02:55:58;100908.59;;;18.31;91.96
59104;BME280;51449;51.676;5.812;2023-10-13T02:58:27;100902.22;;;18.30;91.96
59104;BME280;51449;51.676;5.812;2023-10-13T03:00:59;100898.28;;;18.31;92.26
59104;BME280;51449;51.676;5.812;2023-10-13T03:03:21;100903.06;;;18.34;92.16
59104;BME280;51449;51.676;5.812;2023-10-13T03:05:44;100899.88;;;18.32;92.61
59104;BME280;51449;51.676;5.812;2023-10-13T03:08:07;100895.88;;;18.33;92.42
59104;BME280;51449;51.676;5.812;2023-10-13T03:10:30;100879.13;;;18.33;92.81
59104;BME280;51449;51.676;5.812;2023-10-13T03:12:52;100867.97;;;18.33;93.01
59104;BME280;51449;51.676;5.812;2023-10-13T03:15:14;100863.22;;;18.34;93.18
59104;BME280;51449;51.676;5.812;2023-10-13T03:17:41;100857.22;;;18.32;93.31
59104;BME280;51449;51.676;5.812;2023-10-13T03:20:06;100852.06;;;18.34;93.35
59104;BME280;51449;51.676;5.812;2023-10-13T03:22:32;100853.66;;;18.35;93.52
59104;BME280;51449;51.676;5.812;2023-10-13T03:24:54;100851.28;;;18.37;93.79
59104;BME280;51449;51.676;5.812;2023-10-13T03:27:21;100842.94;;;18.40;93.52
59104;BME280;51449;51.676;5.812;2023-10-13T03:30:00;100831.78;;;18.40;93.40
59104;BME280;51449;51.676;5.812;2023-10-13T03:32:28;100828.19;;;18.40;93.52
59104;BME280;51449;51.676;5.812;2023-10-13T03:34:52;100826.59;;;18.43;93.45
59104;BME280;51449;51.676;5.812;2023-10-13T03:37:13;100815.44;;;18.43;93.62
59104;BME280;51449;51.676;5.812;2023-10-13T03:39:54;100817.06;;;18.44;93.33
59104;BME280;51449;51.676;5.812;2023-10-13T03:42:15;100818.28;;;18.46;93.38
59104;BME280;51449;51.676;5.812;2023-10-13T03:44:41;100811.88;;;18.46;93.27
59104;BME280;51449;51.676;5.812;2023-10-13T03:47:07;100803.94;;;18.48;93.34
59104;BME280;51449;51.676;5.812;2023-10-13T03:49:39;100806.72;;;18.48;93.28
59104;BME280;51449;51.676;5.812;2023-10-13T03:52:01;100792.75;;;18.48;93.43
59104;BME280;51449;51.676;5.812;2023-10-13T03:54:23;100786.00;;;18.49;93.43
59104;BME280;51449;51.676;5.812;2023-10-13T03:56:45;100778.06;;;18.51;93.21
59104;BME280;51449;51.676;5.812;2023-10-13T03:59:08;100767.28;;;18.53;93.15
59104;BME280;51449;51.676;5.812;2023-10-13T04:01:53;100763.31;;;18.54;93.10
59104;BME280;51449;51.676;5.812;2023-10-13T04:04:16;100768.50;;;18.52;93.23
59104;BME280;51449;51.676;5.812;2023-10-13T04:06:56;100761.31;;;18.51;93.68
59104;BME280;51449;51.676;5.812;2023-10-13T04:09:38;100757.69;;;18.50;94.08
59104;BME280;51449;51.676;5.812;2023-10-13T04:12:06;100752.94;;;18.54;93.90
59104;BME280;51449;51.676;5.812;2023-10-13T04:14:36;100746.59;;;18.57;93.86
59104;BME280;51449;51.676;5.812;2023-10-13T04:17:18;100745.78;;;18.60;93.98
59104;BME280;51449;51.676;5.812;2023-10-13T04:19:51;100731.47;;;18.62;94.11
59104;BME280;51449;51.676;5.812;2023-10-13T04:22:27;100711.94;;;18.62;94.25
59104;BME280;51449;51.676;5.812;2023-10-13T04:25:12;100727.09;;;18.61;94.67
59104;BME280;51449;51.676;5.812;2023-10-13T04:27:59;100700.75;;;18.62;94.99
59104;BME280;51449;51.676;5.812;2023-10-13T04:30:36;100704.34;;;18.63;95.41
59104;BME280;51449;51.676;5.812;2023-10-13T04:33:14;100692.44;;;18.66;95.36
59104;BME280;51449;51.676;5.812;2023-10-13T04:36:13;100690.41;;;18.63;95.75
59104;BME280;51449;51.676;5.812;2023-10-13T04:38:38;100683.22;;;18.61;96.26
59104;BME280;51449;51.676;5.812;2023-10-13T04:41:17;100691.22;;;18.63;96.12
59104;BME280;51449;51.676;5.812;2023-10-13T04:43:44;100682.06;;;18.66;96.14
59104;BME280;51449;51.676;5.812;2023-10-13T04:46:17;100681.66;;;18.68;96.38
59104;BME280;51449;51.676;5.812;2023-10-13T04:49:01;100693.63;;;18.68;96.45
59104;BME280;51449;51.676;5.812;2023-10-13T04:51:31;100694.00;;;18.70;96.46
59104;BME280;51449;51.676;5.812;2023-10-13T04:54:14;100683.25;;;18.72;96.75
59104;BME280;51449;51.676;5.812;2023-10-13T04:56:47;100666.94;;;18.71;96.98
59104;BME280;51449;51.676;5.812;2023-10-13T04:59:35;100681.66;;;18.71;97.34
59104;BME280;51449;51.676;5.812;2023-10-13T05:01:57;100680.06;;;18.70;97.69
59104;BME280;51449;51.676;5.812;2023-10-13T05:04:42;100671.72;;;18.74;97.67
59104;BME280;51449;51.676;5.812;2023-10-13T05:07:22;100672.94;;;18.76;97.62
59104;BME280;51449;51.676;5.812;2023-10-13T05:10:05;100667.78;;;18.78;97.74
59104;BME280;51449;51.676;5.812;2023-10-13T05:12:46;100680.16;;;18.81;97.74
59104;BME280;51449;51.676;5.812;2023-10-13T05:15:31;100667.34;;;18.80;97.89
59104;BME280;51449;51.676;5.812;2023-10-13T05:18:11;100671.38;;;18.83;98.01
59104;BME280;51449;51.676;5.812;2023-10-13T05:20:55;100665.00;;;18.86;98.11
59104;BME280;51449;51.676;5.812;2023-10-13T05:23:35;100654.63;;;18.86;97.91
59104;BME280;51449;51.676;5.812;2023-10-13T05:26:16;100659.84;;;18.88;97.94
59104;BME280;51449;51.676;5.812;2023-10-13T05:28:56;100649.84;;;18.87;98.21
59104;BME280;51449;51.676;5.812;2023-10-13T05:31:49;100651.47;;;18.88;98.31
59104;BME280;51449;51.676;5.812;2023-10-13T05:34:34;100650.66;;;18.91;98.34
59104;BME280;51449;51.676;5.812;2023-10-13T05:37:14;100626.34;;;18.95;97.86
59104;BME280;51449;51.676;5.812;2023-10-13T05:39:54;100602.81;;;18.96;98.01
59104;BME280;51449;51.676;5.812;2023-10-13T05:42:34;100602.00;;;18.95;97.95
59104;BME280;51449;51.676;5.812;2023-10-13T05:45:25;100598.81;;;18.93;98.04
59104;BME280;51449;51.676;5.812;2023-10-13T05:48:19;100611.19;;;18.96;97.81
59104;BME280;51449;51.676;5.812;2023-10-13T05:51:00;100606.00;;;18.98;97.69
59104;BME280;51449;51.676;5.812;2023-10-13T05:53:40;100598.81;;;18.97;97.58
59104;BME280;51449;51.676;5.812;2023-10-13T05:56:21;100606.38;;;18.96;97.66
59104;BME280;51449;51.676;5.812;2023-10-13T05:59:01;100607.19;;;18.97;97.82
59104;BME280;51449;51.676;5.812;2023-10-13T06:01:42;100612.38;;;18.95;97.80
59104;BME280;51449;51.676;5.812;2023-10-13T06:04:22;100598.81;;;18.97;97.98
59104;BME280;51449;51.676;5.812;2023-10-13T06:07:02;100618.75;;;18.99;97.71
59104;BME280;51449;51.676;5.812;2023-10-13T06:09:43;100616.38;;;19.01;97.35
59104;BME280;51449;51.676;5.812;2023-10-13T06:12:23;100608.41;;;19.03;97.75
59104;BME280;51449;51.676;5.812;2023-10-13T06:15:04;100611.19;;;19.03;97.82
59104;BME280;51449;51.676;5.812;2023-10-13T06:17:45;100602.44;;;19.05;97.60
59104;BME280;51449;51.676;5.812;2023-10-13T06:20:25;100611.19;;;19.03;97.67
59104;BME280;51449;51.676;5.812;2023-10-13T06:23:05;100606.00;;;19.05;97.78
59104;BME280;51449;51.676;5.812;2023-10-13T06:25:52;100608.00;;;19.08;97.60
59104;BME280;51449;51.676;5.812;2023-10-13T06:28:33;100608.00;;;19.08;97.71
59104;BME280;51449;51.676;5.812;2023-10-13T06:31:09;100606.00;;;19.09;97.48
59104;BME280;51449;51.676;5.812;2023-10-13T06:33:50;100605.19;;;19.12;97.46
59104;BME280;51449;51.676;5.812;2023-10-13T06:36:12;100604.00;;;19.09;97.62
59104;BME280;51449;51.676;5.812;2023-10-13T06:38:34;100606.44;;;19.14;97.64
59104;BME280;51449;51.676;5.812;2023-10-13T06:40:58;100594.44;;;19.14;97.57
59104;BME280;51449;51.676;5.812;2023-10-13T06:43:20;100602.44;;;19.15;97.47
59104;BME280;51449;51.676;5.812;2023-10-13T06:45:48;100604.00;;;19.16;97.33
59104;BME280;51449;51.676;5.812;2023-10-13T06:48:26;100598.84;;;19.18;97.35
59104;BME280;51449;51.676;5.812;2023-10-13T06:50:48;100589.25;;;19.16;97.23
59104;BME280;51449;51.676;5.812;2023-10-13T06:53:11;100591.66;;;19.17;97.36
59104;BME280;51449;51.676;5.812;2023-10-13T06:55:37;100592.44;;;19.18;96.93
59104;BME280;51449;51.676;5.812;2023-10-13T06:58:01;100586.06;;;19.17;97.00
59104;BME280;51449;51.676;5.812;2023-10-13T07:00:23;100582.88;;;19.19;96.87
59104;BME280;51449;51.676;5.812;2023-10-13T07:02:50;100582.06;;;19.18;96.79
59104;BME280;51449;51.676;5.812;2023-10-13T07:05:14;100573.72;;;19.22;96.59
59104;BME280;51449;51.676;5.812;2023-10-13T07:07:39;100571.72;;;19.22;96.27
59104;BME280;51449;51.676;5.812;2023-10-13T07:10:01;100567.31;;;19.21;96.48
59104;BME280;51449;51.676;5.812;2023-10-13T07:12:23;100561.72;;;19.21;96.50
59104;BME280;51449;51.676;5.812;2023-10-13T07:14:48;100558.56;;;19.19;96.20
59104;BME280;51449;51.676;5.812;2023-10-13T07:17:13;100558.53;;;19.16;96.33
59104;BME280;51449;51.676;5.812;2023-10-13T07:19:35;100565.34;;;19.15;96.26
59104;BME280;51449;51.676;5.812;2023-10-13T07:21:58;100545.00;;;19.14;96.37
59104;BME280;51449;51.676;5.812;2023-10-13T07:24:21;100538.19;;;19.15;96.40
59104;BME280;51449;51.676;5.812;2023-10-13T07:26:44;100539.78;;;19.16;96.24
59104;BME280;51449;51.676;5.812;2023-10-13T07:29:18;100538.59;;;19.17;96.37
59104;BME280;51449;51.676;5.812;2023-10-13T07:31:41;100530.63;;;19.19;96.51
59104;BME280;51449;51.676;5.812;2023-10-13T07:34:07;100523.81;;;19.20;96.38
59104;BME280;51449;51.676;5.812;2023-10-13T07:36:46;100529.41;;;19.24;96.18
59104;BME280;51449;51.676;5.812;2023-10-13T07:39:09;100522.63;;;19.25;96.20
59104;BME280;51449;51.676;5.812;2023-10-13T07:41:46;100519.03;;;19.24;96.31
59104;BME280;51449;51.676;5.812;2023-10-13T07:44:15;100525.03;;;19.27;96.33
59104;BME280;51449;51.676;5.812;2023-10-13T07:46:37;100521.44;;;19.30;96.43
59104;BME280;51449;51.676;5.812;2023-10-13T07:49:00;100523.41;;;19.33;96.58
59104;BME280;51449;51.676;5.812;2023-10-13T07:51:32;100533.41;;;19.34;96.66
59104;BME280;51449;51.676;5.812;2023-10-13T07:53:54;100517.00;;;19.36;96.80
59104;BME280;51449;51.676;5.812;2023-10-13T07:56:16;100524.97;;;19.41;96.60
59104;BME280;51449;51.676;5.812;2023-10-13T07:58:40;100520.19;;;19.45;96.46
59104;BME280;51449;51.676;5.812;2023-10-13T08:01:14;100517.41;;;19.45;96.74
59104;BME280;51449;51.676;5.812;2023-10-13T08:03:39;100518.19;;;19.49;96.33
59104;BME280;51449;51.676;5.812;2023-10-13T08:06:07;100509.00;;;19.52;96.62
59104;BME280;51449;51.676;5.812;2023-10-13T08:08:49;100493.03;;;19.56;96.42
59104;BME280;51449;51.676;5.812;2023-10-13T08:11:13;100502.19;;;19.60;96.09
59104;BME280;51449;51.676;5.812;2023-10-13T08:13:45;100490.19;;;19.67;95.81
59104;BME280;51449;51.676;5.812;2023-10-13T08:16:29;100489.84;;;19.69;95.10
59104;BME280;51449;51.676;5.812;2023-10-13T08:19:14;100480.22;;;19.73;94.71
59104;BME280;51449;51.676;5.812;2023-10-13T08:21:49;100487.78;;;19.80;94.14
59104;BME280;51449;51.676;5.812;2023-10-13T08:24:16;100487.75;;;19.87;93.56
59104;BME280;51449;51.676;5.812;2023-10-13T08:26:46;100490.94;;;19.93;92.78
59104;BME280;51449;51.676;5.812;2023-10-13T08:29:20;100476.50;;;20.01;92.23
59104;BME280;51449;51.676;5.812;2023-10-13T08:31:52;100470.09;;;20.04;91.30
59104;BME280;51449;51.676;5.812;2023-10-13T08:34:26;100481.25;;;20.12;90.69
59104;BME280;51449;51.676;5.812;2023-10-13T08:36:51;100475.59;;;20.19;90.42
59104;BME280;51449;51.676;5.812;2023-10-13T08:39:17;100475.53;;;20.33;90.35
59104;BME280;51449;51.676;5.812;2023-10-13T08:41:59;100487.47;;;20.44;89.78
59104;BME280;51449;51.676;5.812;2023-10-13T08:44:34;100488.19;;;20.59;89.09
59104;BME280;51449;51.676;5.812;2023-10-13T08:47:00;100474.91;;;20.70;88.58
59104;BME280;51449;51.676;5.812;2023-10-13T08:49:27;100472.84;;;20.78;87.70
59104;BME280;51449;51.676;5.812;2023-10-13T08:51:53;100464.00;;;20.83;86.82
59104;BME280;51449;51.676;5.812;2023-10-13T08:54:28;100447.53;;;20.89;86.26
59104;BME280;51449;51.676;5.812;2023-10-13T08:56:56;100453.53;;;20.91;84.77
59104;BME280;51449;51.676;5.812;2023-10-13T08:59:19;100451.44;;;21.02;84.65
59104;BME280;51449;51.676;5.812;2023-10-13T09:01:44;100446.09;;;21.15;84.00
59104;BME280;51449;51.676;5.812;2023-10-13T09:04:23;100455.16;;;21.26;83.37
59104;BME280;51449;51.676;5.812;2023-10-13T09:09:25;100448.41;;;21.24;81.48
59104;BME280;51449;51.676;5.812;2023-10-13T09:12:15;100438.78;;;21.25;81.27
59104;BME280;51449;51.676;5.812;2023-10-13T09:14:40;100443.97;;;21.26;81.26
59104;BME280;51449;51.676;5.812;2023-10-13T09:17:06;100424.41;;;21.23;80.34
59104;BME280;51449;51.676;5.812;2023-10-13T09:19:44;100440.00;;;21.24;80.26
59104;BME280;51449;51.676;5.812;2023-10-13T09:22:34;100431.56;;;21.27;80.26
59104;BME280;51449;51.676;5.812;2023-10-13T09:24:59;100428.75;;;21.27;80.28
59104;BME280;51449;51.676;5.812;2023-10-13T09:27:21;100422.81;;;21.22;79.16
59104;BME280;51449;51.676;5.812;2023-10-13T09:30:03;100420.03;;;21.18;78.96
59104;BME280;51449;51.676;5.812;2023-10-13T09:32:45;100417.25;;;21.18;79.13
59104;BME280;51449;51.676;5.812;2023-10-13T09:35:09;100430.84;;;21.20;78.82
59104;BME280;51449;51.676;5.812;2023-10-13T09:37:37;100430.13;;;21.12;76.89
59104;BME280;51449;51.676;5.812;2023-10-13T09:39:59;100427.69;;;21.14;77.15
59104;BME280;51449;51.676;5.812;2023-10-13T09:42:41;100426.91;;;21.13;77.18
59104;BME280;51449;51.676;5.812;2023-10-13T09:45:03;100423.63;;;21.19;77.22
59104;BME280;51449;51.676;5.812;2023-10-13T09:47:27;100424.47;;;21.19;77.06
59104;BME280;51449;51.676;5.812;2023-10-13T09:50:00;100429.22;;;21.22;77.30
59104;BME280;51449;51.676;5.812;2023-10-13T09:52:27;100415.59;;;21.24;77.38
59104;BME280;51449;51.676;5.812;2023-10-13T09:54:58;100420.31;;;21.31;76.75
59104;BME280;51449;51.676;5.812;2023-10-13T09:57:34;100413.91;;;21.30;76.39
59104;BME280;51449;51.676;5.812;2023-10-13T10:00:12;100415.44;;;21.38;76.43
59104;BME280;51449;51.676;5.812;2023-10-13T10:02:55;100409.00;;;21.38;76.49
59104;BME280;51449;51.676;5.812;2023-10-13T10:05:26;100415.41;;;21.42;75.92
59104;BME280;51449;51.676;5.812;2023-10-13T10:07:55;100407.75;;;21.46;75.75
59104;BME280;51449;51.676;5.812;2023-10-13T10:10:22;100402.50;;;21.48;75.22
59104;BME280;51449;51.676;5.812;2023-10-13T10:12:57;100397.63;;;21.56;74.38
59104;BME280;51449;51.676;5.812;2023-10-13T10:15:29;100400.75;;;21.62;74.52
59104;BME280;51449;51.676;5.812;2023-10-13T10:17:56;100399.50;;;21.66;73.82
59104;BME280;51449;51.676;5.812;2023-10-13T10:20:28;100391.78;;;21.74;73.39
59104;BME280;51449;51.676;5.812;2023-10-13T10:23:26;100389.34;;;21.76;73.30
59104;BME280;51449;51.676;5.812;2023-10-13T10:25:57;100386.09;;;21.77;73.29
59104;BME280;51449;51.676;5.812;2023-10-13T10:28:38;100379.31;;;21.78;72.48
59104;BME280;51449;51.676;5.812;2023-10-13T10:31:07;100378.06;;;21.79;73.03
59104;BME280;51449;51.676;5.812;2023-10-13T10:33:34;100363.66;;;21.77;72.57
59104;BME280;51449;51.676;5.812;2023-10-13T10:36:00;100360.53;;;21.75;72.47
59104;BME280;51449;51.676;5.812;2023-10-13T10:38:22;100362.56;;;21.71;72.46
59104;BME280;51449;51.676;5.812;2023-10-13T10:40:52;100360.63;;;21.68;72.26
59104;BME280;51449;51.676;5.812;2023-10-13T10:43:19;100343.03;;;21.64;72.19
59104;BME280;51449;51.676;5.812;2023-10-13T10:45:54;100343.81;;;21.65;72.29
59104;BME280;51449;51.676;5.812;2023-10-13T10:48:22;100347.88;;;21.64;71.97
59104;BME280;51449;51.676;5.812;2023-10-13T10:50:56;100356.28;;;21.64;71.83
59104;BME280;51449;51.676;5.812;2023-10-13T10:53:21;100338.22;;;21.65;71.59
59104;BME280;51449;51.676;5.812;2023-10-13T10:56:04;100344.16;;;21.70;71.48
59104;BME280;51449;51.676;5.812;2023-10-13T10:58:33;100340.13;;;21.71;71.21
59104;BME280;51449;51.676;5.812;2023-10-13T11:01:06;100345.34;;;21.73;70.97
59104;BME280;51449;51.676;5.812;2023-10-13T11:03:52;100349.25;;;21.79;70.71
59104;BME280;51449;51.676;5.812;2023-10-13T11:06:27;100337.16;;;21.82;71.42
59104;BME280;51449;51.676;5.812;2023-10-13T11:08:49;100337.53;;;21.84;71.17
59104;BME280;51449;51.676;5.812;2023-10-13T11:11:29;100331.47;;;21.89;71.23
59104;BME280;51449;51.676;5.812;2023-10-13T11:13:57;100335.00;;;21.93;71.01
59104;BME280;51449;51.676;5.812;2023-10-13T11:16:35;100354.47;;;22.04;70.77
59104;BME280;51449;51.676;5.812;2023-10-13T11:19:03;100323.88;;;22.13;70.58
59104;BME280;51449;51.676;5.812;2023-10-13T11:21:29;100331.81;;;22.18;69.37
59104;BME280;51449;51.676;5.812;2023-10-13T11:23:56;100329.25;;;22.31;68.54
59104;BME280;51449;51.676;5.812;2023-10-13T11:26:18;100320.91;;;22.48;68.84
59104;BME280;51449;51.676;5.812;2023-10-13T11:28:50;100323.09;;;22.60;68.41
59104;BME280;51449;51.676;5.812;2023-10-13T11:31:12;100303.75;;;22.65;67.74
59104;BME280;51449;51.676;5.812;2023-10-13T11:33:44;100304.09;;;22.68;66.77
59104;BME280;51449;51.676;5.812;2023-10-13T11:36:11;100297.28;;;22.69;66.13
59104;BME280;51449;51.676;5.812;2023-10-13T11:38:39;100302.91;;;22.69;66.11
59104;BME280;51449;51.676;5.812;2023-10-13T11:41:09;100289.13;;;22.74;66.02
59104;BME280;51449;51.676;5.812;2023-10-13T11:46:13;100272.44;;;22.87;65.67
59104;BME280;51449;51.676;5.812;2023-10-13T11:48:59;100267.97;;;22.90;64.76
59104;BME280;51449;51.676;5.812;2023-10-13T11:51:48;100267.00;;;23.00;65.50
59104;BME280;51449;51.676;5.812;2023-10-13T11:54:15;100264.84;;;23.07;65.20
59104;BME280;51449;51.676;5.812;2023-10-13T11:56:38;100279.44;;;23.19;65.38
59104;BME280;51449;51.676;5.812;2023-10-13T11:59:00;100266.47;;;23.25;65.09
59104;BME280;51449;51.676;5.812;2023-10-13T12:01:27;100277.63;;;23.28;64.90
59104;BME280;51449;51.676;5.812;2023-10-13T12:04:07;100254.28;;;23.32;64.40
59104;BME280;51449;51.676;5.812;2023-10-13T12:06:48;100252.69;;;23.31;63.70
59104;BME280;51449;51.676;5.812;2023-10-13T12:09:24;100250.22;;;23.33;63.99
59104;BME280;51449;51.676;5.812;2023-10-13T12:11:47;100243.41;;;23.34;63.55
59104;BME280;51449;51.676;5.812;2023-10-13T12:14:16;100230.50;;;23.36;63.52
59104;BME280;51449;51.676;5.812;2023-10-13T12:16:46;100238.91;;;23.36;63.14
59104;BME280;51449;51.676;5.812;2023-10-13T12:19:16;100231.28;;;23.37;62.47
59104;BME280;51449;51.676;5.812;2023-10-13T12:21:38;100236.09;;;23.36;61.75
59104;BME280;51449;51.676;5.812;2023-10-13T12:24:00;100234.78;;;23.41;61.90
59104;BME280;51449;51.676;5.812;2023-10-13T12:26:23;100235.50;;;23.45;62.21
59104;BME280;51449;51.676;5.812;2023-10-13T12:28:53;100231.38;;;23.49;62.01
59104;BME280;51449;51.676;5.812;2023-10-13T12:31:27;100229.72;;;23.52;61.44
59104;BME280;51449;51.676;5.812;2023-10-13T12:33:49;100232.78;;;23.58;61.83
59104;BME280;51449;51.676;5.812;2023-10-13T12:36:13;100226.97;;;23.65;61.89
59104;BME280;51449;51.676;5.812;2023-10-13T12:38:37;100222.19;;;23.65;60.93
59104;BME280;51449;51.676;5.812;2023-10-13T12:41:09;100225.66;;;23.69;61.86
59104;BME280;51449;51.676;5.812;2023-10-13T12:43:56;100228.81;;;23.75;62.08
59104;BME280;51449;51.676;5.812;2023-10-13T12:46:37;100236.00;;;23.76;61.61
59104;BME280;51449;51.676;5.812;2023-10-13T12:49:21;100222.81;;;23.73;60.62
59104;BME280;51449;51.676;5.812;2023-10-13T12:52:01;100223.19;;;23.75;61.10
59104;BME280;51449;51.676;5.812;2023-10-13T12:54:23;100220.78;;;23.74;60.48
59104;BME280;51449;51.676;5.812;2023-10-13T12:56:49;100215.56;;;23.72;60.80
59104;BME280;51449;51.676;5.812;2023-10-13T12:59:18;100215.22;;;23.70;60.57
59104;BME280;51449;51.676;5.812;2023-10-13T13:01:41;100207.13;;;23.72;60.87
59104;BME280;51449;51.676;5.812;2023-10-13T13:04:06;100210.31;;;23.74;60.55
59104;BME280;51449;51.676;5.812;2023-10-13T13:06:33;100217.09;;;23.77;59.88
59104;BME280;51449;51.676;5.812;2023-10-13T13:08:56;100219.13;;;23.76;59.79
59104;BME280;51449;51.676;5.812;2023-10-13T13:11:20;100217.44;;;23.79;60.42